createdAt,value
2023-01-19T00:00:32.193Z,13.10
2023-01-19T00:02:05.040Z,12.20
2023-01-19T00:03:36.953Z,11.30
2023-01-19T00:05:10.374Z,10.32
2023-01-19T00:06:43.072Z,11.90
2023-01-19T00:08:16.222Z,10.90
2023-01-19T00:09:50.213Z,9.85
2023-01-19T00:11:22.904Z,11.75
2023-01-19T00:12:55.591Z,12.13
2023-01-19T00:14:28.270Z,9.95
2023-01-19T00:16:00.965Z,11.25
2023-01-19T00:17:33.690Z,10.52
2023-01-19T00:19:06.351Z,12.40
2023-01-19T00:20:39.515Z,13.98
2023-01-19T00:22:12.200Z,9.68
2023-01-19T00:23:47.288Z,12.73
2023-01-19T00:25:21.303Z,10.40
2023-01-19T00:26:54.015Z,10.82
2023-01-19T00:28:26.757Z,10.85
2023-01-19T00:29:59.443Z,11.85
2023-01-19T00:31:33.900Z,12.27
2023-01-19T00:33:05.738Z,11.30
2023-01-19T00:34:39.473Z,10.52
2023-01-19T00:36:12.193Z,12.13
2023-01-19T00:37:46.134Z,13.13
2023-01-19T00:39:18.826Z,15.40
2023-01-19T00:40:52.839Z,13.82
2023-01-19T00:42:44.219Z,13.65
2023-01-19T00:44:16.900Z,15.50
2023-01-19T00:45:49.623Z,15.32
2023-01-19T00:47:21.347Z,12.73
2023-01-19T00:48:54.039Z,13.05
2023-01-19T00:50:29.177Z,11.63
2023-01-19T00:52:01.949Z,14.82
2023-01-19T00:53:34.644Z,17.40
2023-01-19T00:55:08.926Z,13.65
2023-01-19T00:56:42.960Z,12.50
2023-01-19T00:58:15.651Z,15.02
2023-01-19T00:59:48.311Z,14.13
2023-01-19T01:01:21.121Z,13.50
2023-01-19T01:03:13.943Z,16.63
2023-01-19T01:04:45.810Z,17.25
2023-01-19T01:06:18.482Z,14.00
2023-01-19T01:07:50.743Z,14.02
2023-01-19T01:09:24.186Z,13.93
2023-01-19T01:10:57.419Z,14.57
2023-01-19T01:12:30.459Z,13.38
2023-01-19T01:14:03.402Z,15.15
2023-01-19T01:15:36.181Z,14.98
2023-01-19T01:17:11.223Z,17.80
2023-01-19T01:18:44.625Z,13.80
2023-01-19T01:20:20.066Z,16.98
2023-01-19T01:21:52.823Z,13.60
2023-01-19T01:23:25.526Z,15.20
2023-01-19T01:24:58.212Z,15.02
2023-01-19T01:26:30.907Z,14.00
2023-01-19T01:28:06.892Z,15.60
2023-01-19T01:29:41.020Z,15.55
2023-01-19T01:31:13.776Z,16.80
2023-01-19T01:32:46.745Z,14.90
2023-01-19T01:34:19.800Z,16.05
2023-01-19T01:35:52.688Z,16.63
2023-01-19T01:37:24.493Z,13.57
2023-01-19T01:38:57.184Z,15.65
2023-01-19T01:40:29.890Z,17.27
2023-01-19T01:42:02.746Z,18.45
2023-01-19T01:43:58.285Z,14.88
2023-01-19T01:45:33.936Z,14.52
2023-01-19T01:47:05.832Z,14.93
2023-01-19T01:48:40.436Z,15.00
2023-01-19T01:50:18.750Z,15.45
2023-01-19T01:51:53.501Z,15.80
2023-01-19T01:53:26.229Z,14.88
2023-01-19T01:54:59.465Z,19.63
2023-01-19T01:56:35.833Z,13.02
2023-01-19T01:58:10.207Z,15.57
2023-01-19T01:59:48.251Z,18.48
2023-01-19T02:01:38.749Z,15.77
2023-01-19T02:03:10.685Z,13.70
2023-01-19T02:04:48.189Z,14.55
2023-01-19T02:06:22.225Z,23.52
2023-01-19T02:08:19.463Z,16.38
2023-01-19T02:10:10.418Z,12.63
2023-01-19T02:12:01.279Z,12.05
2023-01-19T02:13:36.400Z,12.88
2023-01-19T02:15:17.391Z,16.83
2023-01-19T02:16:50.185Z,14.88
2023-01-19T02:18:25.112Z,13.55
2023-01-19T02:19:58.338Z,15.70
2023-01-19T02:21:37.216Z,13.35
2023-01-19T02:23:18.313Z,14.80
2023-01-19T02:24:52.963Z,16.67
2023-01-19T02:26:29.512Z,15.65
2023-01-19T02:28:03.325Z,16.27
2023-01-19T02:29:36.465Z,14.50
2023-01-19T02:31:10.533Z,14.63
2023-01-19T02:32:43.730Z,15.77
2023-01-19T02:34:18.539Z,17.45
2023-01-19T02:35:52.203Z,15.07
2023-01-19T02:37:26.863Z,13.30
2023-01-19T02:39:01.990Z,17.10
2023-01-19T02:40:38.458Z,12.63
2023-01-19T02:42:16.024Z,13.68
2023-01-19T02:43:49.748Z,15.05
2023-01-19T02:45:23.890Z,16.08
2023-01-19T02:46:56.583Z,15.45
2023-01-19T02:48:29.261Z,15.40
2023-01-19T02:50:02.099Z,13.40
2023-01-19T02:51:35.371Z,13.48
2023-01-19T02:53:33.997Z,15.93
2023-01-19T02:55:15.887Z,14.93
2023-01-19T02:57:11.589Z,14.18
2023-01-19T02:58:49.537Z,13.73
2023-01-19T03:00:33.515Z,14.63
2023-01-19T03:02:22.487Z,14.90
2023-01-19T03:03:58.856Z,13.73
2023-01-19T03:05:41.615Z,16.08
2023-01-19T03:07:19.711Z,15.82
2023-01-19T03:08:57.649Z,16.77
2023-01-19T03:10:35.536Z,13.35
2023-01-19T03:12:15.334Z,16.60
2023-01-19T03:13:52.887Z,14.27
2023-01-19T03:15:31.412Z,15.05
2023-01-19T03:17:08.465Z,15.43
2023-01-19T03:18:43.678Z,15.18
2023-01-19T03:20:20.771Z,14.07
2023-01-19T03:21:58.939Z,16.85
2023-01-19T03:23:32.438Z,16.65
2023-01-19T03:25:06.961Z,15.02
2023-01-19T03:26:44.837Z,18.27
2023-01-19T03:28:21.248Z,14.55
2023-01-19T03:29:58.180Z,15.32
2023-01-19T03:31:34.023Z,15.95
2023-01-19T03:33:09.480Z,17.35
2023-01-19T03:34:44.084Z,17.10
2023-01-19T03:36:20.845Z,14.52
2023-01-19T03:37:55.916Z,15.48
2023-01-19T03:39:29.768Z,16.98
2023-01-19T03:41:05.681Z,14.63
2023-01-19T03:42:39.841Z,15.57
2023-01-19T03:44:14.105Z,15.25
2023-01-19T03:45:48.111Z,15.52
2023-01-19T03:47:21.223Z,18.17
2023-01-19T03:48:54.867Z,16.55
2023-01-19T03:50:29.971Z,17.40
2023-01-19T03:52:01.974Z,15.02
2023-01-19T03:53:34.690Z,16.55
2023-01-19T03:55:09.698Z,16.70
2023-01-19T03:56:43.382Z,19.98
2023-01-19T03:58:16.069Z,18.27
2023-01-19T03:59:50.445Z,16.65
2023-01-19T04:01:23.714Z,15.50
2023-01-19T04:02:56.600Z,15.35
2023-01-19T04:04:29.468Z,16.60
2023-01-19T04:06:02.212Z,14.73
2023-01-19T04:07:33.967Z,17.33
2023-01-19T04:09:06.686Z,16.17
2023-01-19T04:10:39.505Z,14.88
2023-01-19T04:12:12.193Z,15.63
2023-01-19T04:13:44.793Z,19.02
2023-01-19T04:15:19.360Z,22.77
2023-01-19T04:16:52.101Z,28.83
2023-01-19T04:18:24.780Z,22.00
2023-01-19T04:19:57.459Z,18.25
2023-01-19T04:21:29.193Z,17.67
2023-01-19T04:23:02.852Z,17.92
2023-01-19T04:24:35.813Z,30.73
2023-01-19T04:26:08.525Z,44.42
2023-01-19T04:27:41.223Z,46.83
2023-01-19T04:29:14.924Z,29.52
2023-01-19T04:30:50.750Z,24.35
2023-01-19T04:32:23.467Z,44.42
2023-01-19T04:33:57.214Z,24.33
2023-01-19T04:35:29.914Z,32.15
2023-01-19T04:37:02.729Z,26.20
2023-01-19T04:38:35.892Z,25.48
2023-01-19T04:40:10.389Z,26.77
2023-01-19T04:41:42.161Z,18.60
2023-01-19T04:43:15.188Z,37.22
2023-01-19T04:44:47.955Z,19.98
2023-01-19T04:46:22.049Z,23.35
2023-01-19T04:47:55.644Z,23.95
2023-01-19T04:49:28.303Z,21.52
2023-01-19T04:51:01.045Z,19.10
2023-01-19T04:52:34.987Z,17.73
2023-01-19T04:54:08.834Z,18.35
2023-01-19T04:55:41.125Z,16.77
2023-01-19T04:57:13.896Z,18.23
2023-01-19T04:58:46.594Z,14.13
2023-01-19T05:00:20.685Z,16.90
2023-01-19T05:01:55.892Z,18.52
2023-01-19T05:03:28.686Z,19.98
2023-01-19T05:05:00.832Z,18.90
2023-01-19T05:06:33.764Z,20.05
2023-01-19T05:08:06.895Z,20.48
2023-01-19T05:09:39.668Z,18.77
2023-01-19T05:11:12.347Z,20.67
2023-01-19T05:12:45.135Z,23.88
2023-01-19T05:14:17.921Z,18.55
2023-01-19T05:15:50.772Z,19.95
2023-01-19T05:17:25.029Z,19.02
2023-01-19T05:18:57.720Z,20.85
2023-01-19T05:20:30.403Z,19.98
2023-01-19T05:22:03.745Z,20.50
2023-01-19T05:23:36.521Z,16.95
2023-01-19T05:25:10.005Z,19.58
2023-01-19T05:26:43.412Z,17.33
2023-01-19T05:28:16.703Z,21.00
2023-01-19T05:29:49.407Z,19.30
2023-01-19T05:31:22.288Z,19.40
2023-01-19T05:32:56.360Z,21.38
2023-01-19T05:34:29.099Z,18.85
2023-01-19T05:36:02.021Z,17.83
2023-01-19T05:37:34.707Z,18.38
2023-01-19T05:39:07.788Z,16.70
2023-01-19T05:40:40.463Z,21.45
2023-01-19T05:42:13.149Z,15.82
2023-01-19T05:43:45.899Z,18.58
2023-01-19T05:45:18.589Z,16.17
2023-01-19T05:46:51.341Z,17.23
2023-01-19T05:48:25.689Z,16.63
2023-01-19T05:49:58.564Z,16.90
2023-01-19T05:51:35.040Z,17.38
2023-01-19T05:53:07.704Z,14.65
2023-01-19T05:54:41.040Z,16.00
2023-01-19T05:56:13.720Z,14.70
2023-01-19T05:57:46.471Z,14.15
2023-01-19T05:59:23.939Z,15.88
2023-01-19T06:01:03.280Z,14.82
2023-01-19T06:02:36.001Z,15.73
2023-01-19T06:04:10.047Z,13.90
2023-01-19T06:05:42.730Z,16.05
2023-01-19T06:07:15.592Z,13.23
2023-01-19T06:08:48.387Z,15.32
2023-01-19T06:10:21.168Z,13.60
2023-01-19T06:11:56.454Z,16.67
2023-01-19T06:13:29.155Z,15.75
2023-01-19T06:15:01.952Z,15.65
2023-01-19T06:16:34.767Z,15.77
2023-01-19T06:18:07.465Z,19.17
2023-01-19T06:19:41.799Z,13.95
2023-01-19T06:21:14.612Z,20.08
2023-01-19T06:22:47.905Z,14.80
2023-01-19T06:24:20.620Z,15.98
2023-01-19T06:25:53.435Z,17.48
2023-01-19T06:27:26.239Z,16.45
2023-01-19T06:28:58.927Z,17.77
2023-01-19T06:30:31.720Z,16.55
2023-01-19T06:32:04.578Z,16.50
2023-01-19T06:33:37.324Z,19.20
2023-01-19T06:35:12.105Z,18.80
2023-01-19T06:36:44.831Z,14.95
2023-01-19T06:38:18.458Z,19.45
2023-01-19T06:39:51.166Z,17.17
2023-01-19T06:41:23.896Z,17.73
2023-01-19T06:42:56.649Z,19.73
2023-01-19T06:44:29.326Z,17.45
2023-01-19T06:46:02.265Z,21.50
2023-01-19T06:47:35.035Z,16.77
2023-01-19T06:49:07.976Z,17.70
2023-01-19T06:50:42.036Z,18.83
2023-01-19T06:52:15.918Z,19.60
2023-01-19T06:53:48.741Z,17.17
2023-01-19T06:55:21.426Z,19.90
2023-01-19T06:56:56.041Z,17.58
2023-01-19T06:58:29.227Z,19.05
2023-01-19T07:00:05.121Z,19.00
2023-01-19T07:01:38.255Z,19.95
2023-01-19T07:03:20.456Z,20.75
2023-01-19T07:04:53.216Z,20.63
2023-01-19T07:06:27.287Z,22.85
2023-01-19T07:08:00.013Z,19.58
2023-01-19T07:09:32.726Z,18.65
2023-01-19T07:11:26.172Z,18.27
2023-01-19T07:13:00.508Z,22.83
2023-01-19T07:14:33.972Z,18.30
2023-01-19T07:16:08.312Z,20.65
2023-01-19T07:17:42.057Z,18.38
2023-01-19T07:19:15.276Z,17.88
2023-01-19T07:20:49.181Z,20.48
2023-01-19T07:22:23.252Z,19.73
2023-01-19T07:23:56.009Z,19.35
2023-01-19T07:25:28.703Z,17.00
2023-01-19T07:27:01.372Z,16.10
2023-01-19T07:28:34.109Z,17.63
2023-01-19T07:30:07.957Z,19.52
2023-01-19T07:31:40.788Z,17.98
2023-01-19T07:33:13.660Z,21.73
2023-01-19T07:34:46.383Z,15.73
2023-01-19T07:36:19.122Z,17.60
2023-01-19T07:37:53.141Z,20.48
2023-01-19T07:39:25.960Z,20.23
2023-01-19T07:41:02.046Z,19.02
2023-01-19T07:42:34.804Z,20.67
2023-01-19T07:44:08.598Z,18.58
2023-01-19T07:45:41.346Z,19.33
2023-01-19T07:47:14.088Z,19.08
2023-01-19T07:48:47.341Z,19.38
2023-01-19T07:50:21.261Z,16.90
2023-01-19T07:51:56.203Z,17.73
2023-01-19T07:53:30.274Z,17.50
2023-01-19T07:55:03.561Z,19.05
2023-01-19T07:56:36.476Z,16.75
2023-01-19T07:58:09.206Z,17.10
2023-01-19T07:59:41.877Z,17.17
2023-01-19T08:01:15.395Z,19.10
2023-01-19T08:02:49.854Z,16.30
2023-01-19T08:04:22.658Z,16.17
2023-01-19T08:05:56.932Z,18.13
2023-01-19T08:07:29.653Z,15.75
2023-01-19T08:09:05.559Z,20.58
2023-01-19T08:10:38.312Z,18.40
2023-01-19T08:12:11.411Z,19.10
2023-01-19T08:13:44.334Z,17.60
2023-01-19T08:15:17.431Z,18.33
2023-01-19T08:16:50.149Z,19.40
2023-01-19T08:18:22.896Z,16.30
2023-01-19T08:19:55.584Z,14.85
2023-01-19T08:21:29.056Z,18.50
2023-01-19T08:23:02.925Z,18.42
2023-01-19T08:24:37.275Z,14.48
2023-01-19T08:26:24.069Z,14.60
2023-01-19T08:27:57.419Z,13.85
2023-01-19T08:29:31.802Z,14.02
2023-01-19T08:31:18.698Z,13.35
2023-01-19T08:32:52.496Z,13.55
2023-01-19T08:34:25.350Z,16.00
2023-01-19T08:35:58.209Z,12.85
2023-01-19T08:37:32.659Z,13.45
2023-01-19T08:39:06.720Z,11.98
2023-01-19T08:40:42.149Z,15.23
2023-01-19T08:42:14.830Z,13.73
2023-01-19T08:43:47.610Z,14.27
2023-01-19T08:45:20.340Z,13.43
2023-01-19T08:46:53.021Z,15.40
2023-01-19T08:48:25.694Z,11.52
2023-01-19T08:49:58.418Z,11.75
2023-01-19T08:51:31.090Z,12.88
2023-01-19T08:53:06.532Z,13.02
2023-01-19T08:54:40.425Z,11.50
2023-01-19T08:56:14.778Z,15.02
2023-01-19T08:57:47.477Z,13.50
2023-01-19T08:59:20.221Z,12.35
2023-01-19T09:00:53.047Z,13.48
2023-01-19T09:02:25.851Z,14.23
2023-01-19T09:03:59.027Z,13.52
2023-01-19T09:05:35.456Z,13.77
2023-01-19T09:07:08.149Z,11.43
2023-01-19T09:08:40.938Z,14.43
2023-01-19T09:10:13.723Z,12.55
2023-01-19T09:11:47.777Z,16.13
2023-01-19T09:13:21.199Z,16.60
2023-01-19T09:14:53.907Z,13.73
2023-01-19T09:16:28.538Z,13.88
2023-01-19T09:18:02.137Z,13.68
2023-01-19T09:19:35.156Z,15.95
2023-01-19T09:21:07.088Z,15.60
2023-01-19T09:22:40.213Z,14.20
2023-01-19T09:24:13.037Z,12.13
2023-01-19T09:25:47.829Z,15.00
2023-01-19T09:27:21.844Z,15.10
2023-01-19T09:28:54.580Z,13.63
2023-01-19T09:30:28.267Z,11.05
2023-01-19T09:32:00.973Z,11.82
2023-01-19T09:33:33.794Z,12.15
2023-01-19T09:35:06.954Z,15.02
2023-01-19T09:36:39.894Z,15.15
2023-01-19T09:38:13.217Z,11.35
2023-01-19T09:39:45.979Z,12.20
2023-01-19T09:41:22.422Z,14.50
2023-01-19T09:42:59.361Z,13.75
2023-01-19T09:44:36.597Z,11.70
2023-01-19T09:46:15.177Z,11.32
2023-01-19T09:47:50.476Z,11.52
2023-01-19T09:49:31.593Z,11.10
2023-01-19T09:51:08.517Z,13.00
2023-01-19T09:52:44.653Z,11.35
2023-01-19T09:54:19.178Z,9.23
2023-01-19T09:55:52.266Z,9.85
2023-01-19T09:57:27.152Z,10.65
2023-01-19T09:59:01.821Z,11.48
2023-01-19T10:00:34.710Z,10.65
2023-01-19T10:02:19.779Z,10.02
2023-01-19T10:04:05.852Z,9.98
2023-01-19T10:05:44.674Z,9.98
2023-01-19T10:07:33.052Z,12.02
2023-01-19T10:09:13.724Z,11.32
2023-01-19T10:10:52.628Z,11.10
2023-01-19T10:12:36.583Z,10.35
2023-01-19T10:14:20.135Z,9.38
2023-01-19T10:15:59.301Z,9.95
2023-01-19T10:17:44.576Z,8.55
2023-01-19T10:19:24.583Z,11.63
2023-01-19T10:21:05.568Z,11.25
2023-01-19T10:22:38.875Z,11.98
2023-01-19T10:24:18.831Z,11.38
2023-01-19T10:25:52.288Z,12.13
2023-01-19T10:27:29.177Z,12.13
2023-01-19T10:29:05.856Z,12.98
2023-01-19T10:30:42.368Z,10.52
2023-01-19T10:32:19.671Z,12.90
2023-01-19T10:33:54.012Z,11.35
2023-01-19T10:35:26.807Z,11.70
2023-01-19T10:37:06.114Z,13.68
2023-01-19T10:38:38.980Z,10.82
2023-01-19T10:40:23.080Z,11.45
2023-01-19T10:41:55.793Z,11.18
2023-01-19T10:43:42.489Z,12.23
2023-01-19T10:45:17.520Z,11.45
2023-01-19T10:46:52.299Z,9.82
2023-01-19T10:48:25.250Z,11.15
2023-01-19T10:49:58.042Z,9.77
2023-01-19T10:51:30.884Z,10.55
2023-01-19T10:53:06.345Z,10.80
2023-01-19T10:54:39.211Z,9.82
2023-01-19T10:56:18.061Z,9.90
2023-01-19T10:57:52.994Z,8.10
2023-01-19T10:59:35.445Z,12.45
2023-01-19T11:01:16.427Z,9.45
2023-01-19T11:02:52.247Z,9.63
2023-01-19T11:04:29.851Z,8.85
2023-01-19T11:06:21.113Z,8.18
2023-01-19T11:07:53.912Z,9.88
2023-01-19T11:09:26.575Z,9.23
2023-01-19T11:11:04.239Z,8.38
2023-01-19T11:12:42.059Z,7.93
2023-01-19T11:14:18.132Z,8.05
2023-01-19T11:15:55.032Z,7.97
2023-01-19T11:17:28.268Z,6.88
2023-01-19T11:19:03.486Z,8.50
2023-01-19T11:20:44.096Z,9.63
2023-01-19T11:22:21.720Z,8.93
2023-01-19T11:23:56.796Z,7.82
2023-01-19T11:25:33.433Z,8.25
2023-01-19T11:27:06.253Z,7.68
2023-01-19T11:28:44.902Z,9.45
2023-01-19T11:30:20.929Z,9.05
2023-01-19T11:31:55.281Z,7.63
2023-01-19T11:33:35.285Z,7.20
2023-01-19T11:35:34.393Z,5.97
2023-01-19T11:37:25.937Z,8.10
2023-01-19T11:39:00.306Z,7.13
2023-01-19T11:40:33.778Z,7.88
2023-01-19T11:42:07.238Z,7.72
2023-01-19T11:43:49.094Z,6.90
2023-01-19T11:45:23.578Z,7.22
2023-01-19T11:46:59.310Z,7.90
2023-01-19T11:48:37.121Z,6.97
2023-01-19T11:50:21.207Z,6.85
2023-01-19T11:52:00.837Z,6.47
2023-01-19T11:53:35.112Z,7.47
2023-01-19T11:55:17.887Z,6.43
2023-01-19T11:56:52.131Z,9.95
2023-01-19T11:58:26.574Z,9.05
2023-01-19T12:00:03.473Z,8.95
2023-01-19T12:01:40.135Z,8.48
2023-01-19T12:03:18.792Z,8.48
2023-01-19T12:04:53.797Z,7.28
2023-01-19T12:06:30.927Z,9.98
2023-01-19T12:08:11.160Z,8.25
2023-01-19T12:09:46.853Z,6.55
2023-01-19T12:11:25.868Z,8.73
2023-01-19T12:12:58.915Z,7.03
2023-01-19T12:14:37.199Z,8.48
2023-01-19T12:16:13.862Z,8.30
2023-01-19T12:17:49.631Z,7.22
2023-01-19T12:19:28.558Z,8.23
2023-01-19T12:21:03.826Z,7.90
2023-01-19T12:22:42.241Z,7.15
2023-01-19T12:24:19.252Z,8.57
2023-01-19T12:26:09.413Z,8.15
2023-01-19T12:27:43.959Z,9.45
2023-01-19T12:29:21.763Z,8.15
2023-01-19T12:30:54.916Z,6.07
2023-01-19T12:32:35.183Z,7.38
2023-01-19T12:34:46.418Z,8.52
2023-01-19T12:36:39.501Z,7.80
2023-01-19T12:38:52.212Z,8.75
2023-01-19T12:40:28.892Z,7.60
2023-01-19T12:42:14.574Z,8.40
2023-01-19T12:43:47.945Z,9.60
2023-01-19T12:45:25.645Z,7.25
2023-01-19T12:47:04.059Z,7.35
2023-01-19T12:48:42.784Z,9.75
2023-01-19T12:50:21.091Z,7.55
2023-01-19T12:51:56.636Z,7.68
2023-01-19T12:53:30.770Z,5.93
2023-01-19T12:55:21.916Z,6.13
2023-01-19T12:57:01.560Z,10.00
2023-01-19T12:58:34.694Z,7.05
2023-01-19T13:00:24.941Z,5.88
2023-01-19T13:02:41.791Z,7.68
2023-01-19T13:04:33.230Z,7.05
2023-01-19T13:06:06.059Z,6.03
2023-01-19T13:08:09.149Z,5.78
2023-01-19T13:09:43.094Z,5.78
2023-01-19T13:11:17.656Z,5.25
2023-01-19T13:13:17.481Z,4.70
2023-01-19T13:14:51.111Z,5.28
2023-01-19T13:16:51.372Z,5.95
2023-01-19T13:18:26.199Z,6.55
2023-01-19T13:20:23.912Z,7.97
2023-01-19T13:21:56.595Z,6.45
2023-01-19T13:23:50.506Z,5.78
2023-01-19T13:25:29.331Z,8.68
2023-01-19T13:27:03.465Z,7.45
2023-01-19T13:28:42.396Z,7.38
2023-01-19T13:30:18.774Z,7.53
2023-01-19T13:31:52.671Z,10.68
2023-01-19T13:33:28.122Z,7.95
2023-01-19T13:35:02.199Z,9.50
2023-01-19T13:36:37.978Z,8.02
2023-01-19T13:38:13.806Z,8.57
2023-01-19T13:39:49.916Z,8.20
2023-01-19T13:41:25.304Z,8.45
2023-01-19T13:42:58.741Z,8.30
2023-01-19T13:44:39.054Z,11.73
2023-01-19T13:46:14.633Z,8.40
2023-01-19T13:47:49.939Z,9.85
2023-01-19T13:49:29.399Z,7.22
2023-01-19T13:51:07.580Z,6.80
2023-01-19T13:52:45.698Z,5.15
2023-01-19T13:54:18.599Z,8.23
2023-01-19T13:56:06.823Z,6.93
2023-01-19T13:57:42.133Z,6.72
2023-01-19T13:59:14.947Z,6.00
2023-01-19T14:00:49.044Z,5.38
2023-01-19T14:02:22.389Z,5.90
2023-01-19T14:03:55.900Z,7.30
2023-01-19T14:05:31.014Z,8.65
2023-01-19T14:07:06.931Z,5.70
2023-01-19T14:08:39.609Z,9.52
2023-01-19T14:10:16.414Z,7.38
2023-01-19T14:12:07.160Z,8.07
2023-01-19T14:13:45.111Z,7.55
2023-01-19T14:15:18.000Z,6.68
2023-01-19T14:16:52.112Z,6.90
2023-01-19T14:18:28.032Z,8.15
2023-01-19T14:20:01.771Z,7.50
2023-01-19T14:21:41.918Z,8.43
2023-01-19T14:23:40.099Z,7.38
2023-01-19T14:25:33.020Z,6.93
2023-01-19T14:27:14.177Z,5.65
2023-01-19T14:28:47.213Z,4.38
2023-01-19T14:30:24.911Z,5.22
2023-01-19T14:32:14.764Z,8.60
2023-01-19T14:33:49.104Z,5.43
2023-01-19T14:35:25.886Z,6.28
2023-01-19T14:36:59.345Z,5.88
2023-01-19T14:38:32.047Z,6.68
2023-01-19T14:40:18.595Z,6.20
2023-01-19T14:41:53.356Z,5.97
2023-01-19T14:43:28.453Z,5.45
2023-01-19T14:45:03.592Z,7.25
2023-01-19T14:46:36.691Z,7.00
2023-01-19T14:48:18.208Z,6.93
2023-01-19T14:49:51.149Z,9.20
2023-01-19T14:51:25.273Z,6.53
2023-01-19T14:53:01.025Z,6.93
2023-01-19T14:54:36.930Z,8.63
2023-01-19T14:56:09.865Z,4.47
2023-01-19T14:57:42.562Z,7.00
2023-01-19T14:59:15.246Z,4.85
2023-01-19T15:00:48.949Z,10.63
2023-01-19T15:02:21.688Z,6.95
2023-01-19T15:03:56.694Z,9.38
2023-01-19T15:05:29.433Z,6.45
2023-01-19T15:07:02.115Z,7.15
2023-01-19T15:08:37.453Z,5.60
2023-01-19T15:10:20.524Z,6.45
2023-01-19T15:11:53.832Z,6.43
2023-01-19T15:13:28.420Z,7.13
2023-01-19T15:15:02.635Z,8.77
2023-01-19T15:16:35.860Z,8.48
2023-01-19T15:18:14.584Z,9.73
2023-01-19T15:19:48.611Z,8.60
2023-01-19T15:21:23.547Z,7.03
2023-01-19T15:22:56.258Z,13.35
2023-01-19T15:24:28.916Z,14.10
2023-01-19T15:26:03.169Z,12.05
2023-01-19T15:27:35.904Z,8.65
2023-01-19T15:29:27.129Z,11.13
2023-01-19T15:31:00.868Z,11.75
2023-01-19T15:32:33.547Z,10.68
2023-01-19T15:34:06.231Z,7.57
2023-01-19T15:35:40.318Z,9.23
2023-01-19T15:37:13.024Z,11.38
2023-01-19T15:38:46.035Z,9.60
2023-01-19T15:40:22.571Z,10.27
2023-01-19T15:41:55.421Z,10.40
2023-01-19T15:43:28.096Z,8.90
2023-01-19T15:45:00.777Z,10.48
2023-01-19T15:46:34.409Z,8.52
2023-01-19T15:48:09.376Z,8.45
2023-01-19T15:49:42.068Z,9.90
2023-01-19T15:51:17.734Z,10.57
2023-01-19T15:52:50.480Z,12.45
2023-01-19T15:54:23.203Z,9.68
2023-01-19T15:55:56.805Z,7.35
2023-01-19T15:57:29.587Z,15.55
2023-01-19T15:59:02.808Z,13.38
2023-01-19T16:00:36.426Z,5.95
2023-01-19T16:02:10.921Z,9.30
2023-01-19T16:03:44.083Z,10.10
2023-01-19T16:05:16.942Z,10.43
2023-01-19T16:06:51.037Z,7.70
2023-01-19T16:08:23.764Z,8.88
2023-01-19T16:09:56.578Z,7.50
2023-01-19T16:11:30.590Z,8.13
2023-01-19T16:13:04.751Z,8.85
2023-01-19T16:14:37.465Z,9.82
2023-01-19T16:16:15.615Z,10.18
2023-01-19T16:17:48.382Z,10.32
2023-01-19T16:19:21.088Z,8.48
2023-01-19T16:20:53.779Z,9.95
2023-01-19T16:22:27.815Z,9.80
2023-01-19T16:24:00.535Z,8.85
2023-01-19T16:25:33.263Z,8.90
2023-01-19T16:27:08.001Z,14.80
2023-01-19T16:28:40.705Z,11.10
2023-01-19T16:30:16.220Z,8.52
2023-01-19T16:31:49.347Z,13.00
2023-01-19T16:33:22.115Z,11.00
2023-01-19T16:34:54.845Z,10.25
2023-01-19T16:36:29.548Z,13.75
2023-01-19T16:38:03.962Z,14.02
2023-01-19T16:39:36.695Z,10.20
2023-01-19T16:41:11.107Z,8.00
2023-01-19T16:42:46.518Z,7.80
2023-01-19T16:44:19.214Z,8.10
2023-01-19T16:45:59.879Z,8.27
2023-01-19T16:47:32.666Z,8.98
2023-01-19T16:49:07.706Z,9.45
2023-01-19T16:50:40.379Z,9.00
2023-01-19T16:52:13.118Z,11.07
2023-01-19T16:53:47.317Z,10.63
2023-01-19T16:55:20.028Z,9.93
2023-01-19T16:56:53.838Z,13.30
2023-01-19T16:58:26.534Z,11.55
2023-01-19T16:59:59.221Z,11.63
2023-01-19T17:01:32.169Z,10.85
2023-01-19T17:03:04.989Z,13.27
2023-01-19T17:04:37.697Z,10.77
2023-01-19T17:06:11.104Z,13.80
2023-01-19T17:07:44.372Z,12.88
2023-01-19T17:09:18.553Z,12.10
2023-01-19T17:10:51.243Z,11.77
2023-01-19T17:12:24.022Z,11.70
2023-01-19T17:14:00.005Z,13.38
2023-01-19T17:15:32.692Z,11.93
2023-01-19T17:17:09.164Z,9.35
2023-01-19T17:18:41.845Z,14.90
2023-01-19T17:20:14.852Z,12.75
2023-01-19T17:21:49.469Z,14.45
2023-01-19T17:23:22.221Z,16.70
2023-01-19T17:24:56.268Z,24.20
2023-01-19T17:26:30.879Z,43.67
2023-01-19T17:28:03.634Z,32.97
2023-01-19T17:29:36.442Z,27.63
2023-01-19T17:31:10.612Z,24.35
2023-01-19T17:32:43.428Z,21.75
2023-01-19T17:34:16.133Z,19.95
2023-01-19T17:35:49.136Z,21.77
2023-01-19T17:37:21.881Z,22.20
2023-01-19T17:38:56.507Z,20.13
2023-01-19T17:40:30.932Z,26.40
2023-01-19T17:42:03.714Z,22.92
2023-01-19T17:43:36.412Z,23.08
2023-01-19T17:45:11.019Z,21.02
2023-01-19T17:46:43.728Z,24.38
2023-01-19T17:48:17.385Z,27.45
2023-01-19T17:49:50.098Z,22.35
2023-01-19T17:51:23.802Z,22.52
2023-01-19T17:52:56.509Z,20.55
2023-01-19T17:54:29.263Z,17.45
2023-01-19T17:56:05.368Z,19.58
2023-01-19T17:57:38.380Z,20.60
2023-01-19T17:59:11.158Z,21.85
2023-01-19T18:00:43.841Z,16.50
2023-01-19T18:02:16.715Z,16.27
2023-01-19T18:03:49.747Z,18.15
2023-01-19T18:05:24.757Z,16.67
2023-01-19T18:06:57.909Z,14.15
2023-01-19T18:08:30.617Z,12.48
2023-01-19T18:10:03.323Z,11.25
2023-01-19T18:11:37.378Z,12.68
2023-01-19T18:13:10.045Z,10.98
2023-01-19T18:14:42.949Z,10.82
2023-01-19T18:16:18.132Z,11.00
2023-01-19T18:17:50.839Z,13.57
2023-01-19T18:19:23.520Z,13.13
2023-01-19T18:21:00.275Z,13.40
2023-01-19T18:22:33.429Z,14.10
2023-01-19T18:24:07.168Z,13.77
2023-01-19T18:25:40.076Z,17.10
2023-01-19T18:27:16.203Z,13.80
2023-01-19T18:28:49.822Z,13.80
2023-01-19T18:30:22.730Z,25.17
2023-01-19T18:31:55.440Z,16.05
2023-01-19T18:33:28.608Z,23.40
2023-01-19T18:35:02.352Z,41.85
2023-01-19T18:36:35.104Z,46.08
2023-01-19T18:38:29.200Z,130.35
2023-01-19T18:40:04.231Z,105.30
2023-01-19T18:41:41.492Z,103.10
2023-01-19T18:43:15.508Z,48.50
2023-01-19T18:44:48.176Z,47.60
2023-01-19T18:46:21.145Z,43.42
2023-01-19T18:47:53.885Z,27.10
2023-01-19T18:49:26.592Z,51.78
2023-01-19T18:51:03.143Z,74.22
2023-01-19T18:52:35.853Z,94.10
2023-01-19T18:54:09.813Z,85.55
2023-01-19T18:55:52.086Z,83.75
2023-01-19T18:57:25.049Z,109.32
2023-01-19T18:58:59.132Z,153.23
2023-01-19T19:00:31.923Z,220.32
2023-01-19T19:02:06.716Z,142.82
2023-01-19T19:03:39.636Z,116.25
2023-01-19T19:05:12.442Z,85.95
2023-01-19T19:06:45.148Z,45.78
2023-01-19T19:08:17.959Z,29.55
2023-01-19T19:09:50.802Z,21.50
2023-01-19T19:11:25.198Z,17.42
2023-01-19T19:12:58.701Z,16.10
2023-01-19T19:14:33.081Z,18.08
2023-01-19T19:16:06.997Z,15.82
2023-01-19T19:17:39.864Z,15.80
2023-01-19T19:19:15.258Z,14.60
2023-01-19T19:20:48.036Z,18.02
2023-01-19T19:22:20.784Z,15.98
2023-01-19T19:23:55.249Z,17.20
2023-01-19T19:25:27.987Z,16.88
2023-01-19T19:27:00.721Z,22.23
2023-01-19T19:28:34.251Z,17.45
2023-01-19T19:30:10.149Z,16.80
2023-01-19T19:31:42.993Z,14.73
2023-01-19T19:33:15.816Z,14.80
2023-01-19T19:34:50.374Z,13.90
2023-01-19T19:36:24.691Z,12.95
2023-01-19T19:37:58.145Z,12.60
2023-01-19T19:39:30.940Z,13.13
2023-01-19T19:41:06.492Z,27.50
2023-01-19T19:42:39.503Z,17.52
2023-01-19T19:44:12.899Z,16.30
2023-01-19T19:45:57.419Z,20.00
2023-01-19T19:47:31.388Z,13.60
2023-01-19T19:49:04.141Z,14.98
2023-01-19T19:50:36.831Z,12.98
2023-01-19T19:52:09.539Z,13.45
2023-01-19T19:53:42.499Z,13.00
2023-01-19T19:55:15.257Z,11.27
2023-01-19T19:56:50.290Z,12.50
2023-01-19T19:58:22.997Z,15.27
2023-01-19T19:59:55.672Z,11.65
2023-01-19T20:01:33.456Z,14.85
2023-01-19T20:03:13.267Z,12.93
2023-01-19T20:04:46.132Z,10.88
2023-01-19T20:06:21.775Z,11.68
2023-01-19T20:07:54.457Z,11.68
2023-01-19T20:09:27.169Z,11.57
2023-01-19T20:11:06.217Z,12.65
2023-01-19T20:12:38.942Z,9.90
2023-01-19T20:14:13.259Z,11.07
2023-01-19T20:15:46.666Z,11.80
2023-01-19T20:17:20.873Z,10.95
2023-01-19T20:18:55.008Z,13.25
2023-01-19T20:20:28.826Z,12.65
2023-01-19T20:22:01.589Z,13.70
2023-01-19T20:23:34.374Z,14.43
2023-01-19T20:25:08.003Z,11.18
2023-01-19T20:26:42.708Z,12.38
2023-01-19T20:28:15.476Z,12.90
2023-01-19T20:29:51.814Z,11.40
2023-01-19T20:31:27.174Z,11.60
2023-01-19T20:33:01.899Z,11.93
2023-01-19T20:34:35.575Z,13.75
2023-01-19T20:36:08.626Z,13.10
2023-01-19T20:37:41.367Z,14.63
2023-01-19T20:39:14.063Z,12.73